sensor_id;sensor_type;location;lat;lon;timestamp;P1;durP1;ratioP1;P2;durP2;ratioP2
74229;SDS011;62589;12.568;99.958;2024-02-28T00:00:41;17.08;;;12.55;;
74229;SDS011;62589;12.568;99.958;2024-02-28T00:03:07;15.85;;;11.95;;
74229;SDS011;62589;12.568;99.958;2024-02-28T00:05:34;15.75;;;11.35;;
74229;SDS011;62589;12.568;99.958;2024-02-28T00:08:01;17.17;;;11.73;;
74229;SDS011;62589;12.568;99.958;2024-02-28T00:10:27;17.02;;;11.32;;
74229;SDS011;62589;12.568;99.958;2024-02-28T00:12:54;16.10;;;12.30;;
74229;SDS011;62589;12.568;99.958;2024-02-28T00:15:20;14.90;;;11.32;;
74229;SDS011;62589;12.568;99.958;2024-02-28T00:17:47;15.35;;;11.45;;
74229;SDS011;62589;12.568;99.958;2024-02-28T00:20:18;17.08;;;12.07;;
74229;SDS011;62589;12.568;99.958;2024-02-28T00:22:48;16.05;;;11.88;;
74229;SDS011;62589;12.568;99.958;2024-02-28T00:25:15;14.52;;;11.82;;
74229;SDS011;62589;12.568;99.958;2024-02-28T00:27:41;18.33;;;13.00;;
74229;SDS011;62589;12.568;99.958;2024-02-28T00:30:08;16.27;;;12.07;;
74229;SDS011;62589;12.568;99.958;2024-02-28T00:32:35;15.32;;;11.73;;
74229;SDS011;62589;12.568;99.958;2024-02-28T00:35:02;18.48;;;12.25;;
74229;SDS011;62589;12.568;99.958;2024-02-28T00:37:29;16.08;;;12.65;;
74229;SDS011;62589;12.568;99.958;2024-02-28T00:39:56;20.05;;;12.50;;
74229;SDS011;62589;12.568;99.958;2024-02-28T00:42:23;16.85;;;12.20;;
74229;SDS011;62589;12.568;99.958;2024-02-28T00:44:53;21.25;;;12.68;;
74229;SDS011;62589;12.568;99.958;2024-02-28T00:47:19;17.60;;;12.32;;
74229;SDS011;62589;12.568;99.958;2024-02-28T00:49:46;17.17;;;11.88;;
74229;SDS011;62589;12.568;99.958;2024-02-28T00:52:16;16.20;;;12.43;;
74229;SDS011;62589;12.568;99.958;2024-02-28T00:54:42;20.58;;;12.35;;
74229;SDS011;62589;12.568;99.958;2024-02-28T00:57:09;18.45;;;12.30;;
74229;SDS011;62589;12.568;99.958;2024-02-28T00:59:36;16.65;;;11.90;;
74229;SDS011;62589;12.568;99.958;2024-02-28T01:02:02;16.95;;;12.05;;
74229;SDS011;62589;12.568;99.958;2024-02-28T01:04:29;15.75;;;11.50;;
74229;SDS011;62589;12.568;99.958;2024-02-28T01:06:56;17.02;;;11.00;;
74229;SDS011;62589;12.568;99.958;2024-02-28T01:09:22;21.58;;;11.63;;
74229;SDS011;62589;12.568;99.958;2024-02-28T01:11:49;17.35;;;12.25;;
74229;SDS011;62589;12.568;99.958;2024-02-28T01:14:16;15.07;;;11.40;;
74229;SDS011;62589;12.568;99.958;2024-02-28T01:16:43;17.48;;;11.70;;
74229;SDS011;62589;12.568;99.958;2024-02-28T01:19:09;16.60;;;12.23;;
74229;SDS011;62589;12.568;99.958;2024-02-28T01:21:36;19.20;;;12.80;;
74229;SDS011;62589;12.568;99.958;2024-02-28T01:24:05;23.60;;;14.00;;
74229;SDS011;62589;12.568;99.958;2024-02-28T01:26:31;22.67;;;15.13;;
74229;SDS011;62589;12.568;99.958;2024-02-28T01:28:58;20.63;;;15.25;;
74229;SDS011;62589;12.568;99.958;2024-02-28T01:31:25;24.95;;;16.80;;
74229;SDS011;62589;12.568;99.958;2024-02-28T01:33:52;23.92;;;15.45;;
74229;SDS011;62589;12.568;99.958;2024-02-28T01:36:19;20.77;;;15.27;;
74229;SDS011;62589;12.568;99.958;2024-02-28T01:38:45;24.63;;;16.27;;
74229;SDS011;62589;12.568;99.958;2024-02-28T01:41:12;20.33;;;14.50;;
74229;SDS011;62589;12.568;99.958;2024-02-28T01:43:38;22.65;;;14.88;;
74229;SDS011;62589;12.568;99.958;2024-02-28T01:46:07;16.85;;;10.70;;
74229;SDS011;62589;12.568;99.958;2024-02-28T01:48:48;17.23;;;10.85;;
74229;SDS011;62589;12.568;99.958;2024-02-28T01:51:14;15.27;;;10.23;;
74229;SDS011;62589;12.568;99.958;2024-02-28T01:53:43;13.80;;;10.40;;
74229;SDS011;62589;12.568;99.958;2024-02-28T01:56:11;14.02;;;9.45;;
74229;SDS011;62589;12.568;99.958;2024-02-28T01:58:43;14.70;;;9.27;;
74229;SDS011;62589;12.568;99.958;2024-02-28T02:01:13;16.45;;;9.02;;
74229;SDS011;62589;12.568;99.958;2024-02-28T02:03:42;16.40;;;5.93;;
74229;SDS011;62589;12.568;99.958;2024-02-28T02:06:09;12.23;;;5.28;;
74229;SDS011;62589;12.568;99.958;2024-02-28T02:08:37;12.43;;;4.85;;
74229;SDS011;62589;12.568;99.958;2024-02-28T02:11:04;14.02;;;4.63;;
74229;SDS011;62589;12.568;99.958;2024-02-28T02:13:34;9.40;;;4.63;;
74229;SDS011;62589;12.568;99.958;2024-02-28T02:16:01;8.75;;;4.63;;
74229;SDS011;62589;12.568;99.958;2024-02-28T02:18:29;14.30;;;4.65;;
74229;SDS011;62589;12.568;99.958;2024-02-28T02:20:59;8.88;;;4.20;;
74229;SDS011;62589;12.568;99.958;2024-02-28T02:23:30;10.07;;;4.03;;
74229;SDS011;62589;12.568;99.958;2024-02-28T02:25:57;13.18;;;4.57;;
74229;SDS011;62589;12.568;99.958;2024-02-28T02:28:24;8.00;;;4.20;;
74229;SDS011;62589;12.568;99.958;2024-02-28T02:30:51;13.05;;;4.50;;
74229;SDS011;62589;12.568;99.958;2024-02-28T02:33:17;9.88;;;4.65;;
74229;SDS011;62589;12.568;99.958;2024-02-28T02:35:44;6.57;;;4.43;;
74229;SDS011;62589;12.568;99.958;2024-02-28T02:38:11;9.45;;;4.35;;
74229;SDS011;62589;12.568;99.958;2024-02-28T02:40:38;10.45;;;5.15;;
74229;SDS011;62589;12.568;99.958;2024-02-28T02:43:04;10.18;;;5.32;;
74229;SDS011;62589;12.568;99.958;2024-02-28T02:45:31;11.63;;;5.15;;
74229;SDS011;62589;12.568;99.958;2024-02-28T02:47:58;10.25;;;4.80;;
74229;SDS011;62589;12.568;99.958;2024-02-28T02:50:24;13.90;;;5.38;;
74229;SDS011;62589;12.568;99.958;2024-02-28T02:52:51;13.57;;;5.47;;
74229;SDS011;62589;12.568;99.958;2024-02-28T02:55:18;10.18;;;5.15;;
74229;SDS011;62589;12.568;99.958;2024-02-28T02:57:44;13.77;;;5.85;;
74229;SDS011;62589;12.568;99.958;2024-02-28T03:00:12;17.50;;;5.80;;
74229;SDS011;62589;12.568;99.958;2024-02-28T03:02:39;12.25;;;5.78;;
74229;SDS011;62589;12.568;99.958;2024-02-28T03:05:05;14.35;;;5.88;;
74229;SDS011;62589;12.568;99.958;2024-02-28T03:07:32;10.43;;;5.05;;
74229;SDS011;62589;12.568;99.958;2024-02-28T03:09:59;10.10;;;5.63;;
74229;SDS011;62589;12.568;99.958;2024-02-28T03:12:26;12.77;;;5.60;;
74229;SDS011;62589;12.568;99.958;2024-02-28T03:14:53;12.23;;;5.72;;
74229;SDS011;62589;12.568;99.958;2024-02-28T03:17:19;14.90;;;6.78;;
74229;SDS011;62589;12.568;99.958;2024-02-28T03:19:46;14.65;;;6.15;;
74229;SDS011;62589;12.568;99.958;2024-02-28T03:22:13;13.77;;;5.85;;
74229;SDS011;62589;12.568;99.958;2024-02-28T03:24:40;9.07;;;5.55;;
74229;SDS011;62589;12.568;99.958;2024-02-28T03:27:06;13.27;;;5.72;;
74229;SDS011;62589;12.568;99.958;2024-02-28T03:29:33;11.57;;;5.38;;
74229;SDS011;62589;12.568;99.958;2024-02-28T03:32:00;11.63;;;5.85;;
74229;SDS011;62589;12.568;99.958;2024-02-28T03:34:27;12.30;;;5.90;;
74229;SDS011;62589;12.568;99.958;2024-02-28T03:36:53;9.43;;;6.10;;
74229;SDS011;62589;12.568;99.958;2024-02-28T03:39:20;12.50;;;5.80;;
74229;SDS011;62589;12.568;99.958;2024-02-28T03:41:47;13.82;;;6.05;;
74229;SDS011;62589;12.568;99.958;2024-02-28T03:44:13;12.45;;;5.72;;
74229;SDS011;62589;12.568;99.958;2024-02-28T03:46:40;10.05;;;5.53;;
74229;SDS011;62589;12.568;99.958;2024-02-28T03:49:07;8.27;;;5.57;;
74229;SDS011;62589;12.568;99.958;2024-02-28T03:51:39;9.63;;;6.00;;
74229;SDS011;62589;12.568;99.958;2024-02-28T03:54:06;14.88;;;6.40;;
74229;SDS011;62589;12.568;99.958;2024-02-28T03:56:35;15.45;;;6.50;;
74229;SDS011;62589;12.568;99.958;2024-02-28T03:59:01;22.50;;;6.85;;
74229;SDS011;62589;12.568;99.958;2024-02-28T04:01:29;10.43;;;6.03;;
74229;SDS011;62589;12.568;99.958;2024-02-28T04:03:56;16.73;;;6.75;;
74229;SDS011;62589;12.568;99.958;2024-02-28T04:06:23;11.40;;;5.88;;
74229;SDS011;62589;12.568;99.958;2024-02-28T04:08:50;11.00;;;5.60;;
74229;SDS011;62589;12.568;99.958;2024-02-28T04:11:17;9.60;;;5.22;;
74229;SDS011;62589;12.568;99.958;2024-02-28T04:13:44;9.88;;;4.47;;
74229;SDS011;62589;12.568;99.958;2024-02-28T04:16:10;9.52;;;4.18;;
74229;SDS011;62589;12.568;99.958;2024-02-28T04:18:38;10.10;;;4.60;;
74229;SDS011;62589;12.568;99.958;2024-02-28T04:21:05;14.38;;;4.68;;
74229;SDS011;62589;12.568;99.958;2024-02-28T04:23:31;9.63;;;4.65;;
74229;SDS011;62589;12.568;99.958;2024-02-28T04:25:58;9.57;;;4.18;;
74229;SDS011;62589;12.568;99.958;2024-02-28T04:28:25;12.85;;;4.40;;
74229;SDS011;62589;12.568;99.958;2024-02-28T04:30:51;9.05;;;4.15;;
74229;SDS011;62589;12.568;99.958;2024-02-28T04:33:18;10.20;;;4.07;;
74229;SDS011;62589;12.568;99.958;2024-02-28T04:35:45;10.85;;;4.25;;
74229;SDS011;62589;12.568;99.958;2024-02-28T04:38:11;9.73;;;4.20;;
74229;SDS011;62589;12.568;99.958;2024-02-28T04:40:38;12.75;;;5.30;;
74229;SDS011;62589;12.568;99.958;2024-02-28T04:43:05;10.18;;;5.03;;
74229;SDS011;62589;12.568;99.958;2024-02-28T04:45:32;11.23;;;5.90;;
74229;SDS011;62589;12.568;99.958;2024-02-28T04:47:58;15.05;;;5.45;;
74229;SDS011;62589;12.568;99.958;2024-02-28T04:50:25;10.65;;;5.35;;
74229;SDS011;62589;12.568;99.958;2024-02-28T04:52:52;14.68;;;5.45;;
74229;SDS011;62589;12.568;99.958;2024-02-28T04:55:18;11.25;;;5.47;;
74229;SDS011;62589;12.568;99.958;2024-02-28T04:57:45;11.15;;;5.75;;
74229;SDS011;62589;12.568;99.958;2024-02-28T05:00:12;11.23;;;5.88;;
74229;SDS011;62589;12.568;99.958;2024-02-28T05:02:39;7.30;;;5.40;;
74229;SDS011;62589;12.568;99.958;2024-02-28T05:05:06;7.53;;;5.18;;
74229;SDS011;62589;12.568;99.958;2024-02-28T05:07:33;9.65;;;6.10;;
74229;SDS011;62589;12.568;99.958;2024-02-28T05:09:59;9.98;;;6.18;;
74229;SDS011;62589;12.568;99.958;2024-02-28T05:12:26;8.68;;;5.47;;
74229;SDS011;62589;12.568;99.958;2024-02-28T05:14:53;11.60;;;6.43;;
74229;SDS011;62589;12.568;99.958;2024-02-28T05:17:19;13.57;;;5.88;;
74229;SDS011;62589;12.568;99.958;2024-02-28T05:19:46;12.57;;;5.80;;
74229;SDS011;62589;12.568;99.958;2024-02-28T05:22:13;12.13;;;5.50;;
74229;SDS011;62589;12.568;99.958;2024-02-28T05:24:39;13.32;;;5.05;;
74229;SDS011;62589;12.568;99.958;2024-02-28T05:27:09;12.57;;;5.25;;
74229;SDS011;62589;12.568;99.958;2024-02-28T05:29:35;14.43;;;5.18;;
74229;SDS011;62589;12.568;99.958;2024-02-28T05:32:02;13.13;;;5.22;;
74229;SDS011;62589;12.568;99.958;2024-02-28T05:34:29;12.13;;;4.82;;
74229;SDS011;62589;12.568;99.958;2024-02-28T05:36:56;10.63;;;4.65;;
74229;SDS011;62589;12.568;99.958;2024-02-28T05:39:25;9.02;;;4.70;;
74229;SDS011;62589;12.568;99.958;2024-02-28T05:41:53;9.55;;;4.40;;
74229;SDS011;62589;12.568;99.958;2024-02-28T05:44:20;8.15;;;4.47;;
74229;SDS011;62589;12.568;99.958;2024-02-28T05:46:47;11.25;;;4.70;;
74229;SDS011;62589;12.568;99.958;2024-02-28T05:49:13;12.82;;;5.00;;
74229;SDS011;62589;12.568;99.958;2024-02-28T05:51:40;10.07;;;4.97;;
74229;SDS011;62589;12.568;99.958;2024-02-28T05:54:07;9.07;;;4.60;;
74229;SDS011;62589;12.568;99.958;2024-02-28T05:56:33;8.25;;;4.93;;
74229;SDS011;62589;12.568;99.958;2024-02-28T05:59:00;7.63;;;4.80;;
74229;SDS011;62589;12.568;99.958;2024-02-28T06:01:28;9.55;;;4.57;;
74229;SDS011;62589;12.568;99.958;2024-02-28T06:03:54;9.48;;;5.15;;
74229;SDS011;62589;12.568;99.958;2024-02-28T06:06:21;10.32;;;5.55;;
74229;SDS011;62589;12.568;99.958;2024-02-28T06:08:48;7.10;;;4.60;;
74229;SDS011;62589;12.568;99.958;2024-02-28T06:11:15;6.85;;;4.45;;
74229;SDS011;62589;12.568;99.958;2024-02-28T06:13:41;7.53;;;4.78;;
74229;SDS011;62589;12.568;99.958;2024-02-28T06:16:13;8.10;;;4.38;;
74229;SDS011;62589;12.568;99.958;2024-02-28T06:18:41;10.55;;;5.00;;
74229;SDS011;62589;12.568;99.958;2024-02-28T06:21:08;9.35;;;4.80;;
74229;SDS011;62589;12.568;99.958;2024-02-28T06:23:34;8.63;;;4.75;;
74229;SDS011;62589;12.568;99.958;2024-02-28T06:26:01;7.18;;;4.68;;
74229;SDS011;62589;12.568;99.958;2024-02-28T06:28:28;8.30;;;4.95;;
74229;SDS011;62589;12.568;99.958;2024-02-28T06:30:54;6.00;;;4.60;;
74229;SDS011;62589;12.568;99.958;2024-02-28T06:33:21;7.32;;;4.72;;
74229;SDS011;62589;12.568;99.958;2024-02-28T06:35:47;8.27;;;4.95;;
74229;SDS011;62589;12.568;99.958;2024-02-28T06:38:14;7.47;;;4.68;;
74229;SDS011;62589;12.568;99.958;2024-02-28T06:40:41;6.88;;;5.20;;
74229;SDS011;62589;12.568;99.958;2024-02-28T06:43:07;12.98;;;4.80;;
74229;SDS011;62589;12.568;99.958;2024-02-28T06:45:34;6.63;;;4.45;;
74229;SDS011;62589;12.568;99.958;2024-02-28T06:48:02;6.05;;;4.65;;
74229;SDS011;62589;12.568;99.958;2024-02-28T06:50:29;6.63;;;4.32;;
74229;SDS011;62589;12.568;99.958;2024-02-28T06:52:55;8.98;;;4.68;;
74229;SDS011;62589;12.568;99.958;2024-02-28T06:55:22;9.50;;;4.63;;
74229;SDS011;62589;12.568;99.958;2024-02-28T06:57:49;8.73;;;4.20;;
74229;SDS011;62589;12.568;99.958;2024-02-28T07:00:15;7.07;;;4.00;;
74229;SDS011;62589;12.568;99.958;2024-02-28T07:02:44;7.82;;;4.53;;
74229;SDS011;62589;12.568;99.958;2024-02-28T07:05:11;7.05;;;4.50;;
74229;SDS011;62589;12.568;99.958;2024-02-28T07:07:41;5.00;;;3.90;;
74229;SDS011;62589;12.568;99.958;2024-02-28T07:10:08;6.72;;;3.80;;
74229;SDS011;62589;12.568;99.958;2024-02-28T07:12:35;8.80;;;4.05;;
74229;SDS011;62589;12.568;99.958;2024-02-28T07:15:01;6.22;;;3.80;;
74229;SDS011;62589;12.568;99.958;2024-02-28T07:17:28;7.72;;;4.28;;
74229;SDS011;62589;12.568;99.958;2024-02-28T07:19:55;8.50;;;4.18;;
74229;SDS011;62589;12.568;99.958;2024-02-28T07:22:22;6.95;;;3.97;;
74229;SDS011;62589;12.568;99.958;2024-02-28T07:24:48;8.65;;;4.03;;
74229;SDS011;62589;12.568;99.958;2024-02-28T07:27:15;9.73;;;4.20;;
74229;SDS011;62589;12.568;99.958;2024-02-28T07:29:42;9.07;;;4.53;;
74229;SDS011;62589;12.568;99.958;2024-02-28T07:32:09;9.77;;;4.50;;
74229;SDS011;62589;12.568;99.958;2024-02-28T07:34:36;6.63;;;3.95;;
74229;SDS011;62589;12.568;99.958;2024-02-28T07:37:02;9.32;;;4.32;;
74229;SDS011;62589;12.568;99.958;2024-02-28T07:39:29;7.53;;;3.90;;
74229;SDS011;62589;12.568;99.958;2024-02-28T07:41:56;9.90;;;3.80;;
74229;SDS011;62589;12.568;99.958;2024-02-28T07:44:22;7.60;;;3.30;;
74229;SDS011;62589;12.568;99.958;2024-02-28T07:46:49;10.32;;;3.75;;
74229;SDS011;62589;12.568;99.958;2024-02-28T07:49:18;7.38;;;3.45;;
74229;SDS011;62589;12.568;99.958;2024-02-28T07:51:45;11.00;;;4.05;;
74229;SDS011;62589;12.568;99.958;2024-02-28T07:54:12;7.65;;;3.40;;
74229;SDS011;62589;12.568;99.958;2024-02-28T07:56:38;9.13;;;3.63;;
74229;SDS011;62589;12.568;99.958;2024-02-28T07:59:05;8.10;;;3.90;;
74229;SDS011;62589;12.568;99.958;2024-02-28T08:01:32;6.68;;;2.92;;
74229;SDS011;62589;12.568;99.958;2024-02-28T08:03:59;9.02;;;3.88;;
74229;SDS011;62589;12.568;99.958;2024-02-28T08:06:27;8.70;;;3.95;;
74229;SDS011;62589;12.568;99.958;2024-02-28T08:08:53;8.20;;;3.13;;
74229;SDS011;62589;12.568;99.958;2024-02-28T08:11:20;12.65;;;4.25;;
74229;SDS011;62589;12.568;99.958;2024-02-28T08:13:47;7.30;;;3.10;;
74229;SDS011;62589;12.568;99.958;2024-02-28T08:16:13;10.65;;;3.65;;
74229;SDS011;62589;12.568;99.958;2024-02-28T08:18:40;8.57;;;3.75;;
74229;SDS011;62589;12.568;99.958;2024-02-28T08:21:07;9.98;;;3.95;;
74229;SDS011;62589;12.568;99.958;2024-02-28T08:23:35;8.15;;;3.42;;
74229;SDS011;62589;12.568;99.958;2024-02-28T08:26:01;6.95;;;3.55;;
74229;SDS011;62589;12.568;99.958;2024-02-28T08:28:29;8.98;;;3.90;;
74229;SDS011;62589;12.568;99.958;2024-02-28T08:30:56;9.30;;;3.63;;
74229;SDS011;62589;12.568;99.958;2024-02-28T08:33:24;7.50;;;4.25;;
74229;SDS011;62589;12.568;99.958;2024-02-28T08:35:50;9.68;;;4.25;;
74229;SDS011;62589;12.568;99.958;2024-02-28T08:38:17;11.65;;;4.18;;
74229;SDS011;62589;12.568;99.958;2024-02-28T08:40:44;9.05;;;3.55;;
74229;SDS011;62589;12.568;99.958;2024-02-28T08:43:10;15.60;;;4.68;;
74229;SDS011;62589;12.568;99.958;2024-02-28T08:45:37;9.93;;;4.18;;
74229;SDS011;62589;12.568;99.958;2024-02-28T08:48:07;6.53;;;3.83;;
74229;SDS011;62589;12.568;99.958;2024-02-28T08:50:34;13.23;;;4.63;;
74229;SDS011;62589;12.568;99.958;2024-02-28T08:53:01;9.63;;;4.50;;
74229;SDS011;62589;12.568;99.958;2024-02-28T08:55:28;11.73;;;4.47;;
74229;SDS011;62589;12.568;99.958;2024-02-28T08:57:55;12.05;;;4.50;;
74229;SDS011;62589;12.568;99.958;2024-02-28T09:00:22;7.80;;;4.00;;
74229;SDS011;62589;12.568;99.958;2024-02-28T09:02:48;9.57;;;4.43;;
74229;SDS011;62589;12.568;99.958;2024-02-28T09:05:15;7.85;;;4.90;;
74229;SDS011;62589;12.568;99.958;2024-02-28T09:07:42;10.90;;;4.80;;
74229;SDS011;62589;12.568;99.958;2024-02-28T09:10:09;9.95;;;4.50;;
74229;SDS011;62589;12.568;99.958;2024-02-28T09:12:36;10.85;;;4.63;;
74229;SDS011;62589;12.568;99.958;2024-02-28T09:15:03;8.90;;;4.10;;
74229;SDS011;62589;12.568;99.958;2024-02-28T09:17:30;10.20;;;4.07;;
74229;SDS011;62589;12.568;99.958;2024-02-28T09:19:56;9.75;;;4.45;;
74229;SDS011;62589;12.568;99.958;2024-02-28T09:22:26;12.90;;;4.43;;
74229;SDS011;62589;12.568;99.958;2024-02-28T09:24:52;9.15;;;4.13;;
74229;SDS011;62589;12.568;99.958;2024-02-28T09:27:19;8.95;;;4.40;;
74229;SDS011;62589;12.568;99.958;2024-02-28T09:29:46;9.75;;;4.63;;
74229;SDS011;62589;12.568;99.958;2024-02-28T09:32:12;9.95;;;4.95;;
74229;SDS011;62589;12.568;99.958;2024-02-28T09:34:40;10.75;;;4.35;;
74229;SDS011;62589;12.568;99.958;2024-02-28T09:37:06;13.25;;;4.30;;
74229;SDS011;62589;12.568;99.958;2024-02-28T09:39:33;7.85;;;4.40;;
74229;SDS011;62589;12.568;99.958;2024-02-28T09:42:00;10.25;;;4.85;;
74229;SDS011;62589;12.568;99.958;2024-02-28T09:44:27;9.93;;;4.85;;
74229;SDS011;62589;12.568;99.958;2024-02-28T09:46:55;9.40;;;4.80;;
74229;SDS011;62589;12.568;99.958;2024-02-28T09:49:22;7.93;;;4.55;;
74229;SDS011;62589;12.568;99.958;2024-02-28T09:51:52;8.27;;;5.18;;
74229;SDS011;62589;12.568;99.958;2024-02-28T09:54:18;13.73;;;5.13;;
74229;SDS011;62589;12.568;99.958;2024-02-28T09:56:46;11.35;;;5.68;;
74229;SDS011;62589;12.568;99.958;2024-02-28T09:59:20;9.60;;;5.60;;
74229;SDS011;62589;12.568;99.958;2024-02-28T10:01:53;15.48;;;6.25;;
74229;SDS011;62589;12.568;99.958;2024-02-28T10:04:26;11.85;;;5.30;;
74229;SDS011;62589;12.568;99.958;2024-02-28T10:06:53;11.60;;;5.63;;
74229;SDS011;62589;12.568;99.958;2024-02-28T10:09:20;8.15;;;5.10;;
74229;SDS011;62589;12.568;99.958;2024-02-28T10:11:46;9.98;;;5.07;;
74229;SDS011;62589;12.568;99.958;2024-02-28T10:14:22;8.40;;;5.00;;
74229;SDS011;62589;12.568;99.958;2024-02-28T10:16:49;7.05;;;4.90;;
74229;SDS011;62589;12.568;99.958;2024-02-28T10:19:17;11.00;;;5.45;;
74229;SDS011;62589;12.568;99.958;2024-02-28T10:21:45;12.73;;;5.43;;
74229;SDS011;62589;12.568;99.958;2024-02-28T10:24:12;15.75;;;6.80;;
74229;SDS011;62589;12.568;99.958;2024-02-28T10:26:46;15.02;;;6.03;;
74229;SDS011;62589;12.568;99.958;2024-02-28T10:29:22;10.57;;;6.30;;
74229;SDS011;62589;12.568;99.958;2024-02-28T10:31:56;13.70;;;6.30;;
74229;SDS011;62589;12.568;99.958;2024-02-28T10:34:23;13.85;;;6.28;;
74229;SDS011;62589;12.568;99.958;2024-02-28T10:36:50;10.05;;;5.72;;
74229;SDS011;62589;12.568;99.958;2024-02-28T10:39:17;13.18;;;5.82;;
74229;SDS011;62589;12.568;99.958;2024-02-28T10:41:46;12.35;;;5.80;;
74229;SDS011;62589;12.568;99.958;2024-02-28T10:44:14;12.57;;;6.47;;
74229;SDS011;62589;12.568;99.958;2024-02-28T10:46:42;12.90;;;6.07;;
74229;SDS011;62589;12.568;99.958;2024-02-28T10:49:14;13.43;;;6.80;;
74229;SDS011;62589;12.568;99.958;2024-02-28T10:51:41;13.60;;;6.35;;
74229;SDS011;62589;12.568;99.958;2024-02-28T10:54:12;9.85;;;6.72;;
74229;SDS011;62589;12.568;99.958;2024-02-28T10:56:40;9.65;;;6.30;;
74229;SDS011;62589;12.568;99.958;2024-02-28T10:59:08;9.43;;;5.97;;
74229;SDS011;62589;12.568;99.958;2024-02-28T11:01:36;9.80;;;6.82;;
74229;SDS011;62589;12.568;99.958;2024-02-28T11:04:07;8.13;;;6.13;;
74229;SDS011;62589;12.568;99.958;2024-02-28T11:06:34;12.88;;;6.90;;
74229;SDS011;62589;12.568;99.958;2024-02-28T11:09:01;13.18;;;6.57;;
74229;SDS011;62589;12.568;99.958;2024-02-28T11:11:30;10.98;;;6.63;;
74229;SDS011;62589;12.568;99.958;2024-02-28T11:13:58;14.38;;;7.63;;
74229;SDS011;62589;12.568;99.958;2024-02-28T11:16:28;9.95;;;6.65;;
74229;SDS011;62589;12.568;99.958;2024-02-28T11:18:56;12.13;;;7.47;;
74229;SDS011;62589;12.568;99.958;2024-02-28T11:21:27;10.60;;;6.57;;
74229;SDS011;62589;12.568;99.958;2024-02-28T11:23:58;8.38;;;6.45;;
74229;SDS011;62589;12.568;99.958;2024-02-28T11:26:25;10.98;;;6.28;;
74229;SDS011;62589;12.568;99.958;2024-02-28T11:28:55;10.63;;;6.15;;
74229;SDS011;62589;12.568;99.958;2024-02-28T11:31:22;8.25;;;6.32;;
74229;SDS011;62589;12.568;99.958;2024-02-28T11:33:49;8.80;;;5.97;;
74229;SDS011;62589;12.568;99.958;2024-02-28T11:36:16;9.88;;;6.45;;
74229;SDS011;62589;12.568;99.958;2024-02-28T11:38:43;9.15;;;6.10;;
74229;SDS011;62589;12.568;99.958;2024-02-28T11:41:10;9.25;;;6.03;;
74229;SDS011;62589;12.568;99.958;2024-02-28T11:43:36;9.18;;;6.40;;
74229;SDS011;62589;12.568;99.958;2024-02-28T11:46:09;10.93;;;6.60;;
74229;SDS011;62589;12.568;99.958;2024-02-28T11:48:36;12.30;;;6.63;;
74229;SDS011;62589;12.568;99.958;2024-02-28T11:51:05;14.98;;;8.32;;
74229;SDS011;62589;12.568;99.958;2024-02-28T11:53:33;8.35;;;6.32;;
74229;SDS011;62589;12.568;99.958;2024-02-28T11:56:00;9.73;;;5.32;;
74229;SDS011;62589;12.568;99.958;2024-02-28T11:58:27;9.85;;;6.15;;
74229;SDS011;62589;12.568;99.958;2024-02-28T12:00:53;7.82;;;4.85;;
74229;SDS011;62589;12.568;99.958;2024-02-28T12:03:21;6.10;;;4.32;;
74229;SDS011;62589;12.568;99.958;2024-02-28T12:05:52;5.95;;;4.05;;
74229;SDS011;62589;12.568;99.958;2024-02-28T12:08:19;7.88;;;4.95;;
74229;SDS011;62589;12.568;99.958;2024-02-28T12:10:46;7.13;;;4.90;;
74229;SDS011;62589;12.568;99.958;2024-02-28T12:13:20;6.63;;;4.50;;
74229;SDS011;62589;12.568;99.958;2024-02-28T12:15:48;7.40;;;5.22;;
74229;SDS011;62589;12.568;99.958;2024-02-28T12:18:18;9.35;;;4.65;;
74229;SDS011;62589;12.568;99.958;2024-02-28T12:20:45;10.20;;;5.07;;
74229;SDS011;62589;12.568;99.958;2024-02-28T12:23:12;7.60;;;4.75;;
74229;SDS011;62589;12.568;99.958;2024-02-28T12:25:39;6.93;;;4.70;;
74229;SDS011;62589;12.568;99.958;2024-02-28T12:28:05;5.28;;;4.53;;
74229;SDS011;62589;12.568;99.958;2024-02-28T12:30:38;5.35;;;4.15;;
74229;SDS011;62589;12.568;99.958;2024-02-28T12:33:09;11.05;;;5.78;;
74229;SDS011;62589;12.568;99.958;2024-02-28T12:35:37;7.25;;;5.68;;
74229;SDS011;62589;12.568;99.958;2024-02-28T12:38:04;10.55;;;6.43;;
74229;SDS011;62589;12.568;99.958;2024-02-28T12:40:31;8.48;;;6.28;;
74229;SDS011;62589;12.568;99.958;2024-02-28T12:42:57;7.93;;;6.20;;
74229;SDS011;62589;12.568;99.958;2024-02-28T12:45:24;10.88;;;6.97;;
74229;SDS011;62589;12.568;99.958;2024-02-28T12:47:51;7.32;;;6.13;;
74229;SDS011;62589;12.568;99.958;2024-02-28T12:50:19;9.18;;;6.00;;
74229;SDS011;62589;12.568;99.958;2024-02-28T12:52:47;12.30;;;7.10;;
74229;SDS011;62589;12.568;99.958;2024-02-28T12:55:19;10.18;;;6.50;;
74229;SDS011;62589;12.568;99.958;2024-02-28T12:57:49;9.30;;;6.32;;
74229;SDS011;62589;12.568;99.958;2024-02-28T13:00:16;9.07;;;6.28;;
74229;SDS011;62589;12.568;99.958;2024-02-28T13:02:43;8.80;;;6.57;;
74229;SDS011;62589;12.568;99.958;2024-02-28T13:05:11;9.68;;;7.07;;
74229;SDS011;62589;12.568;99.958;2024-02-28T13:07:41;9.50;;;7.13;;
74229;SDS011;62589;12.568;99.958;2024-02-28T13:10:07;11.40;;;7.13;;
74229;SDS011;62589;12.568;99.958;2024-02-28T13:12:37;10.05;;;7.28;;
74229;SDS011;62589;12.568;99.958;2024-02-28T13:15:05;10.88;;;7.20;;
74229;SDS011;62589;12.568;99.958;2024-02-28T13:17:33;13.82;;;8.00;;
74229;SDS011;62589;12.568;99.958;2024-02-28T13:20:00;10.80;;;6.72;;
74229;SDS011;62589;12.568;99.958;2024-02-28T13:22:28;12.52;;;7.57;;
74229;SDS011;62589;12.568;99.958;2024-02-28T13:24:55;14.65;;;7.60;;
74229;SDS011;62589;12.568;99.958;2024-02-28T13:27:21;12.75;;;8.20;;
74229;SDS011;62589;12.568;99.958;2024-02-28T13:29:48;13.68;;;8.43;;
74229;SDS011;62589;12.568;99.958;2024-02-28T13:32:14;13.95;;;7.47;;
74229;SDS011;62589;12.568;99.958;2024-02-28T13:34:41;15.60;;;8.32;;
74229;SDS011;62589;12.568;99.958;2024-02-28T13:37:08;16.30;;;8.35;;
74229;SDS011;62589;12.568;99.958;2024-02-28T13:39:35;15.35;;;7.93;;
74229;SDS011;62589;12.568;99.958;2024-02-28T13:42:01;13.60;;;8.10;;
74229;SDS011;62589;12.568;99.958;2024-02-28T13:44:31;11.95;;;8.13;;
74229;SDS011;62589;12.568;99.958;2024-02-28T13:46:59;13.32;;;8.25;;
74229;SDS011;62589;12.568;99.958;2024-02-28T13:49:26;14.88;;;8.02;;
74229;SDS011;62589;12.568;99.958;2024-02-28T13:51:53;12.82;;;8.25;;
74229;SDS011;62589;12.568;99.958;2024-02-28T13:54:20;13.75;;;8.73;;
74229;SDS011;62589;12.568;99.958;2024-02-28T13:56:46;12.80;;;8.13;;
74229;SDS011;62589;12.568;99.958;2024-02-28T13:59:13;13.55;;;8.02;;
74229;SDS011;62589;12.568;99.958;2024-02-28T14:01:40;11.77;;;8.05;;
74229;SDS011;62589;12.568;99.958;2024-02-28T14:04:07;13.23;;;7.43;;
74229;SDS011;62589;12.568;99.958;2024-02-28T14:06:33;10.70;;;7.10;;
74229;SDS011;62589;12.568;99.958;2024-02-28T14:09:00;12.50;;;6.88;;
74229;SDS011;62589;12.568;99.958;2024-02-28T14:11:26;12.85;;;6.75;;
74229;SDS011;62589;12.568;99.958;2024-02-28T14:13:53;8.75;;;6.55;;
74229;SDS011;62589;12.568;99.958;2024-02-28T14:16:20;12.15;;;6.50;;
74229;SDS011;62589;12.568;99.958;2024-02-28T14:18:47;9.85;;;6.68;;
74229;SDS011;62589;12.568;99.958;2024-02-28T14:21:13;12.60;;;6.32;;
74229;SDS011;62589;12.568;99.958;2024-02-28T14:23:40;12.27;;;7.10;;
74229;SDS011;62589;12.568;99.958;2024-02-28T14:26:08;8.95;;;6.65;;